Terminal Aerodrome Forecast
Issued by NWS

Home | Current Version | Previous Version | Text Only | Print | Product List | Glossary On
Versions: 1 2 3 4 5 6 7 8 9 10 11 12 13 14 15 16 17
000
FTUS41 KBTV 290531
TAFSLK
TAF
KSLK 290531Z 2906/3006 00000KT 6SM BR SCT250
      TEMPO 2906/2909 2SM BR BKN002
     FM290900 00000KT 1/2SM FG BKN002
     FM291200 VRB03KT P6SM BKN200
     FM291400 22007KT P6SM FEW040 BKN200
     FM300000 VRB03KT P6SM BKN070 OVC100=

USA.gov is the U.S. government's official web portal to all federal, state and local government web resources and services.